createdAt,value
2018-09-18T00:02:22.720Z,11.20
2018-09-18T00:04:51.431Z,11.22
2018-09-18T00:07:20.110Z,11.23
2018-09-18T00:09:48.936Z,11.21
2018-09-18T00:12:17.755Z,11.25
2018-09-18T00:14:46.566Z,11.27
2018-09-18T00:17:15.670Z,11.21
2018-09-18T00:19:44.523Z,11.19
2018-09-18T00:22:13.110Z,11.16
2018-09-18T00:24:41.905Z,11.17
2018-09-18T00:27:10.677Z,11.12
2018-09-18T00:29:39.683Z,11.08
2018-09-18T00:32:08.287Z,11.06
2018-09-18T00:34:37.310Z,11.09
2018-09-18T00:37:06.575Z,11.06
2018-09-18T00:39:35.380Z,11.02
2018-09-18T00:42:04.033Z,10.97
2018-09-18T00:44:33.315Z,10.95
2018-09-18T00:47:02.554Z,10.89
2018-09-18T00:49:31.425Z,10.86
2018-09-18T00:52:00.844Z,10.86
2018-09-18T00:54:29.556Z,10.86
2018-09-18T00:56:59.359Z,10.77
2018-09-18T00:59:28.626Z,10.68
2018-09-18T01:01:57.624Z,10.66
2018-09-18T01:04:26.428Z,10.67
2018-09-18T01:06:55.187Z,10.58
2018-09-18T01:09:24.021Z,10.50
2018-09-18T01:11:52.735Z,10.60
2018-09-18T01:14:21.560Z,10.60
2018-09-18T01:16:51.198Z,10.62
2018-09-18T01:19:20.025Z,10.59
2018-09-18T01:21:48.770Z,10.52
2018-09-18T01:24:17.419Z,10.53
2018-09-18T01:26:47.595Z,10.54
2018-09-18T01:29:16.721Z,10.48
2018-09-18T01:31:45.593Z,10.40
2018-09-18T01:34:14.584Z,10.28
2018-09-18T01:36:43.315Z,10.25
2018-09-18T01:39:12.241Z,10.16
2018-09-18T01:41:41.431Z,10.18
2018-09-18T01:44:10.541Z,10.13
2018-09-18T01:46:39.949Z,10.13
2018-09-18T01:49:08.880Z,10.10
2018-09-18T01:51:37.595Z,10.05
2018-09-18T01:54:06.541Z,10.05
2018-09-18T01:56:35.904Z,10.06
2018-09-18T01:59:04.535Z,10.04
2018-09-18T02:01:33.296Z,10.01
2018-09-18T02:04:02.401Z,9.99
2018-09-18T02:06:31.344Z,9.99
2018-09-18T02:09:00.831Z,10.00
2018-09-18T02:11:30.722Z,9.85
2018-09-18T02:13:59.414Z,9.77
2018-09-18T02:16:28.344Z,9.76
2018-09-18T02:18:56.979Z,9.77
2018-09-18T02:21:25.695Z,9.83
2018-09-18T02:23:54.472Z,9.77
2018-09-18T02:26:23.845Z,9.82
2018-09-18T02:28:52.730Z,9.72
2018-09-18T02:31:21.595Z,9.59
2018-09-18T02:33:50.261Z,9.61
2018-09-18T02:36:19.402Z,9.57
2018-09-18T02:38:48.835Z,9.59
2018-09-18T02:41:18.042Z,9.61
2018-09-18T02:43:47.084Z,9.56
2018-09-18T02:46:17.376Z,9.65
2018-09-18T02:48:46.479Z,9.59
2018-09-18T02:51:15.372Z,9.48
2018-09-18T02:53:43.980Z,9.42
2018-09-18T02:56:12.834Z,9.47
2018-09-18T02:58:41.552Z,9.44
2018-09-18T03:01:10.390Z,9.35
2018-09-18T03:03:39.869Z,9.33
2018-09-18T03:06:09.252Z,9.33
2018-09-18T03:08:38.020Z,9.33
2018-09-18T03:11:06.754Z,9.34
2018-09-18T03:13:35.831Z,9.33
2018-09-18T03:16:05.204Z,9.31
2018-09-18T03:18:33.898Z,9.29
2018-09-18T03:21:03.508Z,9.31
2018-09-18T03:23:32.636Z,9.25
2018-09-18T03:26:01.322Z,9.18
2018-09-18T03:28:30.302Z,9.15
2018-09-18T03:30:59.322Z,9.13
2018-09-18T03:33:28.975Z,9.14
2018-09-18T03:35:57.872Z,9.15
2018-09-18T03:38:27.210Z,9.18
2018-09-18T03:40:56.201Z,9.12
2018-09-18T03:43:25.161Z,9.09
2018-09-18T03:45:54.005Z,9.10
2018-09-18T03:48:22.603Z,9.14
2018-09-18T03:50:52.601Z,9.08
2018-09-18T03:53:21.270Z,9.08
2018-09-18T03:55:50.780Z,9.02
2018-09-18T03:58:19.498Z,9.03
2018-09-18T04:00:48.180Z,9.04
2018-09-18T04:03:17.028Z,9.04
2018-09-18T04:05:45.705Z,9.01
2018-09-18T04:08:14.918Z,9.08
2018-09-18T04:10:43.816Z,8.94
2018-09-18T04:13:12.545Z,8.92
2018-09-18T04:15:42.721Z,8.93
2018-09-18T04:18:13.615Z,8.94
2018-09-18T04:20:42.706Z,8.96
2018-09-18T04:23:11.355Z,8.95
2018-09-18T04:25:40.168Z,8.99
2018-09-18T04:28:09.560Z,9.02
2018-09-18T04:30:38.727Z,9.03
2018-09-18T04:33:07.607Z,9.02
2018-09-18T04:35:36.276Z,9.02
2018-09-18T04:38:04.942Z,8.96
2018-09-18T04:40:33.755Z,8.95
2018-09-18T04:43:03.075Z,8.91
2018-09-18T04:45:31.815Z,8.88
2018-09-18T04:48:01.434Z,8.88
2018-09-18T04:50:30.667Z,8.89
2018-09-18T04:52:59.407Z,8.89
2018-09-18T04:55:28.016Z,8.95
2018-09-18T04:57:56.940Z,8.95
2018-09-18T05:00:25.871Z,8.92
2018-09-18T05:02:54.777Z,8.86
2018-09-18T05:05:23.572Z,8.87
2018-09-18T05:07:52.276Z,8.92
2018-09-18T05:10:21.051Z,8.92
2018-09-18T05:12:49.881Z,8.90
2018-09-18T05:15:19.328Z,8.94
2018-09-18T05:17:48.282Z,8.97
2018-09-18T05:20:17.038Z,8.94
2018-09-18T05:22:45.838Z,8.99
2018-09-18T05:25:14.528Z,9.03
2018-09-18T05:27:44.036Z,9.05
2018-09-18T05:30:13.021Z,9.13
2018-09-18T05:32:41.747Z,9.16
2018-09-18T05:35:10.858Z,9.26
2018-09-18T05:37:39.407Z,9.35
2018-09-18T05:40:08.409Z,9.47
2018-09-18T05:42:37.469Z,9.60
2018-09-18T05:45:06.683Z,9.71
2018-09-18T05:47:35.461Z,9.83
2018-09-18T05:50:05.341Z,10.00
2018-09-18T05:52:34.292Z,10.14
2018-09-18T05:55:03.123Z,10.31
2018-09-18T05:57:32.061Z,10.35
2018-09-18T06:00:00.968Z,10.35
2018-09-18T06:02:29.651Z,10.42
2018-09-18T06:04:58.418Z,10.56
2018-09-18T06:07:27.868Z,10.67
2018-09-18T06:09:56.886Z,10.79
2018-09-18T06:12:25.686Z,10.97
2018-09-18T06:14:54.568Z,11.35
2018-09-18T06:17:24.348Z,11.62
2018-09-18T06:19:53.100Z,11.80
2018-09-18T06:22:22.043Z,12.06
2018-09-18T06:24:50.697Z,12.67
2018-09-18T06:27:19.467Z,12.96
2018-09-18T06:29:49.002Z,13.49
2018-09-18T06:32:18.022Z,13.77
2018-09-18T06:34:48.200Z,14.33
2018-09-18T06:37:17.276Z,14.99
2018-09-18T06:39:46.718Z,15.62
2018-09-18T06:42:15.622Z,15.81
2018-09-18T06:44:44.781Z,16.48
2018-09-18T06:47:13.573Z,16.93
2018-09-18T06:49:43.116Z,17.15
2018-09-18T06:52:12.812Z,17.56
2018-09-18T06:54:41.600Z,18.19
2018-09-18T06:57:10.592Z,18.73
2018-09-18T06:59:40.520Z,18.77
2018-09-18T07:02:09.651Z,19.52
2018-09-18T07:04:39.256Z,20.29
2018-09-18T07:07:08.116Z,20.60
2018-09-18T07:09:37.698Z,20.56
2018-09-18T07:12:06.767Z,21.09
2018-09-18T07:14:35.921Z,21.30
2018-09-18T07:17:04.978Z,21.54
2018-09-18T07:19:35.321Z,22.39
2018-09-18T07:22:04.712Z,22.60
2018-09-18T07:24:33.653Z,22.82
2018-09-18T07:27:02.891Z,22.42
2018-09-18T07:29:31.950Z,23.52
2018-09-18T07:32:00.586Z,24.41
2018-09-18T07:34:29.732Z,24.82
2018-09-18T07:36:58.631Z,25.37
2018-09-18T07:39:27.272Z,25.38
2018-09-18T07:41:56.147Z,25.51
2018-09-18T07:44:24.916Z,26.87
2018-09-18T07:46:53.601Z,27.28
2018-09-18T07:49:23.006Z,27.55
2018-09-18T07:51:51.725Z,28.06
2018-09-18T07:54:21.569Z,28.47
2018-09-18T07:56:50.231Z,29.03
2018-09-18T07:59:19.048Z,29.68
2018-09-18T08:01:47.993Z,29.96
2018-09-18T08:04:16.903Z,30.12
2018-09-18T08:06:45.602Z,31.11
2018-09-18T08:09:14.729Z,32.57
2018-09-18T08:11:43.549Z,32.39
2018-09-18T08:14:12.225Z,33.06
2018-09-18T08:16:41.023Z,32.97
2018-09-18T08:19:09.823Z,33.80
2018-09-18T08:21:38.487Z,34.25
2018-09-18T08:24:07.590Z,35.02
2018-09-18T08:26:36.350Z,35.39
2018-09-18T08:29:05.557Z,35.51
2018-09-18T08:31:34.455Z,34.56
2018-09-18T08:34:03.033Z,35.16
2018-09-18T08:36:31.802Z,36.05
2018-09-18T08:39:00.581Z,36.64
2018-09-18T08:41:29.608Z,35.18
2018-09-18T08:43:58.633Z,36.04
2018-09-18T08:46:27.287Z,36.40
2018-09-18T08:48:57.442Z,36.50
2018-09-18T08:51:26.944Z,36.97
2018-09-18T08:53:55.893Z,36.98
2018-09-18T08:56:24.698Z,37.05
2018-09-18T08:58:53.332Z,37.57
2018-09-18T09:01:22.476Z,38.47
2018-09-18T09:03:51.888Z,38.89
2018-09-18T09:06:20.733Z,38.61
2018-09-18T09:08:49.759Z,38.88
2018-09-18T09:11:18.436Z,39.59
2018-09-18T09:13:48.038Z,39.85
2018-09-18T09:16:16.873Z,40.22
2018-09-18T09:18:46.724Z,39.27
2018-09-18T09:21:16.162Z,38.12
2018-09-18T09:23:45.305Z,38.05
2018-09-18T09:26:13.978Z,37.99
2018-09-18T09:28:42.813Z,39.47
2018-09-18T09:31:11.490Z,40.56
2018-09-18T09:33:40.324Z,40.93
2018-09-18T09:36:09.100Z,41.84
2018-09-18T09:38:37.987Z,40.98
2018-09-18T09:41:06.849Z,41.70
2018-09-18T09:43:35.481Z,41.40
2018-09-18T09:46:04.647Z,41.19
2018-09-18T09:48:33.822Z,41.78
2018-09-18T09:51:04.157Z,41.25
2018-09-18T09:53:33.218Z,43.31
2018-09-18T09:56:02.887Z,42.80
2018-09-18T09:58:31.629Z,44.87
2018-09-18T10:01:05.897Z,44.39
2018-09-18T10:03:34.643Z,45.16
2018-09-18T10:06:04.057Z,45.09
2018-09-18T10:08:33.392Z,44.66
2018-09-18T10:11:02.790Z,46.29
2018-09-18T10:13:31.603Z,46.11
2018-09-18T10:16:00.219Z,45.86
2018-09-18T10:18:28.998Z,46.37
2018-09-18T10:20:57.705Z,46.81
2018-09-18T10:23:26.300Z,46.89
2018-09-18T10:25:55.153Z,46.44
2018-09-18T10:28:23.924Z,47.39
2018-09-18T10:30:52.794Z,46.44
2018-09-18T10:33:21.543Z,47.37
2018-09-18T10:35:50.239Z,45.55
2018-09-18T10:38:19.285Z,45.84
2018-09-18T10:40:48.220Z,46.09
2018-09-18T10:43:17.048Z,45.19
2018-09-18T10:45:45.981Z,44.85
2018-09-18T10:48:14.778Z,43.47
2018-09-18T10:50:43.666Z,41.83
2018-09-18T10:53:12.550Z,39.59
2018-09-18T10:55:41.524Z,38.90
2018-09-18T10:58:11.148Z,39.69
2018-09-18T11:00:40.379Z,39.82
2018-09-18T11:03:09.793Z,39.76
2018-09-18T11:05:39.806Z,39.63
2018-09-18T11:08:08.656Z,39.34
2018-09-18T11:10:37.405Z,39.93
2018-09-18T11:13:06.523Z,40.86
2018-09-18T11:15:35.658Z,41.13
2018-09-18T11:18:04.978Z,40.24
2018-09-18T11:20:34.298Z,39.94
2018-09-18T11:23:03.711Z,40.42
2018-09-18T11:25:32.624Z,40.93
2018-09-18T11:28:01.722Z,41.18
2018-09-18T11:30:31.160Z,41.20
2018-09-18T11:32:59.871Z,40.81
2018-09-18T11:35:29.129Z,40.49
2018-09-18T11:37:57.765Z,40.11
2018-09-18T11:40:26.994Z,40.28
2018-09-18T11:42:56.274Z,39.63
2018-09-18T11:45:25.003Z,39.03
2018-09-18T11:47:53.711Z,39.59
2018-09-18T11:50:22.710Z,40.06
2018-09-18T11:52:51.749Z,40.17
2018-09-18T11:55:21.349Z,40.14
2018-09-18T11:57:50.091Z,40.08
2018-09-18T12:00:19.654Z,40.29
2018-09-18T12:02:48.406Z,39.12
2018-09-18T12:05:17.241Z,39.04
2018-09-18T12:07:46.360Z,39.36
2018-09-18T12:10:15.034Z,38.07
2018-09-18T12:12:43.895Z,37.95
2018-09-18T12:15:13.045Z,37.33
2018-09-18T12:17:42.281Z,38.09
2018-09-18T12:20:11.329Z,38.30
2018-09-18T12:22:40.134Z,38.09
2018-09-18T12:25:09.009Z,37.79
2018-09-18T12:27:38.244Z,37.30
2018-09-18T12:30:07.966Z,35.43
2018-09-18T12:32:36.634Z,35.84
2018-09-18T12:35:05.864Z,36.72
2018-09-18T12:37:34.543Z,37.41
2018-09-18T12:40:03.288Z,36.53
2018-09-18T12:42:32.589Z,36.57
2018-09-18T12:45:02.143Z,36.55
2018-09-18T12:47:30.960Z,36.41
2018-09-18T12:50:00.622Z,36.03
2018-09-18T12:52:29.321Z,35.14
2018-09-18T12:54:58.340Z,35.67
2018-09-18T12:57:27.217Z,35.54
2018-09-18T12:59:56.285Z,36.19
2018-09-18T13:02:24.985Z,36.39
2018-09-18T13:04:53.625Z,36.27
2018-09-18T13:07:23.204Z,35.87
2018-09-18T13:09:52.121Z,36.39
2018-09-18T13:12:21.249Z,35.92
2018-09-18T13:14:50.440Z,36.11
2018-09-18T13:17:19.644Z,36.13
2018-09-18T13:19:48.938Z,35.83
2018-09-18T13:22:18.126Z,35.32
2018-09-18T13:24:46.820Z,35.37
2018-09-18T13:27:15.694Z,35.52
2018-09-18T13:29:44.856Z,35.46
2018-09-18T13:32:13.644Z,35.68
2018-09-18T13:34:42.265Z,35.06
2018-09-18T13:37:11.825Z,34.07
2018-09-18T13:39:41.831Z,33.40
2018-09-18T13:42:10.535Z,33.09
2018-09-18T13:44:39.206Z,32.76
2018-09-18T13:47:08.516Z,32.33
2018-09-18T13:49:37.336Z,32.27
2018-09-18T13:52:06.750Z,32.49
2018-09-18T13:54:35.736Z,32.45
2018-09-18T13:57:04.610Z,32.37
2018-09-18T13:59:33.663Z,32.29
2018-09-18T14:02:02.410Z,32.38
2018-09-18T14:04:31.216Z,32.34
2018-09-18T14:06:59.875Z,32.20
2018-09-18T14:09:28.826Z,32.24
2018-09-18T14:11:58.336Z,31.86
2018-09-18T14:14:28.008Z,31.82
2018-09-18T14:16:57.109Z,31.71
2018-09-18T14:19:26.416Z,31.83
2018-09-18T14:21:55.294Z,31.80
2018-09-18T14:24:24.189Z,31.69
2018-09-18T14:26:52.939Z,31.57
2018-09-18T14:29:21.971Z,31.68
2018-09-18T14:31:50.867Z,31.81
2018-09-18T14:34:19.649Z,31.81
2018-09-18T14:36:48.948Z,31.78
2018-09-18T14:39:18.091Z,31.90
2018-09-18T14:41:47.701Z,31.92
2018-09-18T14:44:16.551Z,31.79
2018-09-18T14:46:45.461Z,31.79
2018-09-18T14:49:14.386Z,31.68
2018-09-18T14:51:43.368Z,31.61
2018-09-18T14:54:12.172Z,31.42
2018-09-18T14:56:41.065Z,31.35
2018-09-18T14:59:09.659Z,31.29
2018-09-18T15:01:38.515Z,31.24
2018-09-18T15:04:07.448Z,31.07
2018-09-18T15:06:36.256Z,31.00
2018-09-18T15:09:06.980Z,30.95
2018-09-18T15:11:35.751Z,30.94
2018-09-18T15:14:04.641Z,31.04
2018-09-18T15:16:33.637Z,31.00
2018-09-18T15:19:02.749Z,30.92
2018-09-18T15:21:31.632Z,30.81
2018-09-18T15:24:01.121Z,30.59
2018-09-18T15:26:29.817Z,30.30
2018-09-18T15:28:58.610Z,30.18
2018-09-18T15:31:28.951Z,29.95
2018-09-18T15:33:57.760Z,29.83
2018-09-18T15:36:27.446Z,29.54
2018-09-18T15:38:56.236Z,29.16
2018-09-18T15:41:25.487Z,29.12
2018-09-18T15:43:55.086Z,29.03
2018-09-18T15:46:25.057Z,28.89
2018-09-18T15:48:54.568Z,28.66
2018-09-18T15:51:23.661Z,28.35
2018-09-18T15:53:52.296Z,28.12
2018-09-18T15:56:21.192Z,27.74
2018-09-18T15:58:51.046Z,27.66
2018-09-18T16:01:20.805Z,27.55
2018-09-18T16:03:49.886Z,27.65
2018-09-18T16:06:18.699Z,27.70
2018-09-18T16:08:48.187Z,27.76
2018-09-18T16:11:17.389Z,27.84
2018-09-18T16:13:46.311Z,27.82
2018-09-18T16:16:15.914Z,27.82
2018-09-18T16:18:45.237Z,27.79
2018-09-18T16:21:13.981Z,27.79
2018-09-18T16:23:42.951Z,27.67
2018-09-18T16:26:11.787Z,27.61
2018-09-18T16:28:40.928Z,27.48
2018-09-18T16:31:09.830Z,27.43
2018-09-18T16:33:38.740Z,27.30
2018-09-18T16:36:07.850Z,27.18
2018-09-18T16:38:37.100Z,27.03
2018-09-18T16:41:06.157Z,26.91
2018-09-18T16:43:35.337Z,26.73
2018-09-18T16:46:04.695Z,26.38
2018-09-18T16:48:33.798Z,26.28
2018-09-18T16:51:03.007Z,26.07
2018-09-18T16:53:31.881Z,26.03
2018-09-18T16:56:02.545Z,26.04
2018-09-18T16:58:31.311Z,25.95
2018-09-18T17:01:00.855Z,25.86
2018-09-18T17:03:30.141Z,25.73
2018-09-18T17:05:58.979Z,25.58
2018-09-18T17:08:28.754Z,25.52
2018-09-18T17:10:57.448Z,25.36
2018-09-18T17:13:26.260Z,25.29
2018-09-18T17:15:55.304Z,25.19
2018-09-18T17:18:24.324Z,25.06
2018-09-18T17:20:53.139Z,25.01
2018-09-18T17:23:22.062Z,24.89
2018-09-18T17:25:51.240Z,24.77
2018-09-18T17:28:20.318Z,24.65
2018-09-18T17:30:49.612Z,24.56
2018-09-18T17:33:18.962Z,24.38
2018-09-18T17:35:48.640Z,24.19
2018-09-18T17:38:18.301Z,24.23
2018-09-18T17:40:47.670Z,24.19
2018-09-18T17:43:17.502Z,24.18
2018-09-18T17:45:46.276Z,24.13
2018-09-18T17:48:15.310Z,23.76
2018-09-18T17:50:44.313Z,23.76
2018-09-18T17:53:13.796Z,23.74
2018-09-18T17:55:43.005Z,23.76
2018-09-18T17:58:12.040Z,23.65
2018-09-18T18:00:41.517Z,23.65
2018-09-18T18:03:10.478Z,23.56
2018-09-18T18:05:39.771Z,23.53
2018-09-18T18:08:08.603Z,23.48
2018-09-18T18:10:38.185Z,23.39
2018-09-18T18:13:07.486Z,23.39
2018-09-18T18:15:36.563Z,23.25
2018-09-18T18:18:05.963Z,23.15
2018-09-18T18:20:35.013Z,22.96
2018-09-18T18:23:04.270Z,22.90
2018-09-18T18:25:33.687Z,22.94
2018-09-18T18:28:02.732Z,23.02
2018-09-18T18:30:31.972Z,22.99
2018-09-18T18:33:01.092Z,22.93
2018-09-18T18:35:30.390Z,22.94
2018-09-18T18:37:59.610Z,22.89
2018-09-18T18:40:28.642Z,22.87
2018-09-18T18:42:58.272Z,22.78
2018-09-18T18:45:27.197Z,22.73
2018-09-18T18:47:56.139Z,22.68
2018-09-18T18:50:24.916Z,22.64
2018-09-18T18:52:53.920Z,22.60
2018-09-18T18:55:23.234Z,22.51
2018-09-18T18:57:52.133Z,22.48
2018-09-18T19:00:21.063Z,22.41
2018-09-18T19:02:49.850Z,22.13
2018-09-18T19:05:19.119Z,22.15
2018-09-18T19:07:47.985Z,22.08
2018-09-18T19:10:17.568Z,22.01
2018-09-18T19:12:46.800Z,21.94
2018-09-18T19:15:16.052Z,21.57
2018-09-18T19:17:45.424Z,21.50
2018-09-18T19:20:14.410Z,21.04
2018-09-18T19:22:43.684Z,20.48
2018-09-18T19:25:12.867Z,20.46
2018-09-18T19:27:42.029Z,20.56
2018-09-18T19:30:11.162Z,20.66
2018-09-18T19:32:40.398Z,20.57
2018-09-18T19:35:09.430Z,20.46
2018-09-18T19:37:38.366Z,20.28
2018-09-18T19:40:08.168Z,20.06
2018-09-18T19:42:37.431Z,19.96
2018-09-18T19:45:06.404Z,20.02
2018-09-18T19:47:35.268Z,20.01
2018-09-18T19:50:04.187Z,19.96
2018-09-18T19:52:32.972Z,19.49
2018-09-18T19:55:02.550Z,19.28
2018-09-18T19:57:31.742Z,19.24
2018-09-18T20:00:00.843Z,19.27
2018-09-18T20:02:30.251Z,19.32
2018-09-18T20:04:59.100Z,19.42
2018-09-18T20:07:27.990Z,19.29
2018-09-18T20:09:57.083Z,19.33
2018-09-18T20:12:26.168Z,19.21
2018-09-18T20:14:55.640Z,19.19
2018-09-18T20:17:24.568Z,19.07
2018-09-18T20:19:53.987Z,18.93
2018-09-18T20:22:22.879Z,18.75
2018-09-18T20:24:52.227Z,18.69
2018-09-18T20:27:21.648Z,18.61
2018-09-18T20:29:50.706Z,18.68
2018-09-18T20:32:19.960Z,18.62
2018-09-18T20:34:49.082Z,18.40
2018-09-18T20:37:18.309Z,18.10
2018-09-18T20:39:47.320Z,18.15
2018-09-18T20:42:16.836Z,18.14
2018-09-18T20:44:45.582Z,18.19
2018-09-18T20:47:14.571Z,18.19
2018-09-18T20:49:43.491Z,18.29
2018-09-18T20:52:12.975Z,18.23
2018-09-18T20:54:41.893Z,18.24
2018-09-18T20:57:11.218Z,18.21
2018-09-18T20:59:39.996Z,18.21
2018-09-18T21:02:09.833Z,18.02
2018-09-18T21:04:38.861Z,17.97
2018-09-18T21:07:07.735Z,17.97
2018-09-18T21:09:37.328Z,17.97
2018-09-18T21:12:06.486Z,18.05
2018-09-18T21:14:35.896Z,18.00
2018-09-18T21:17:04.580Z,17.94
2018-09-18T21:19:33.334Z,17.94
2018-09-18T21:22:02.316Z,17.90
2018-09-18T21:24:31.596Z,17.92
2018-09-18T21:27:01.334Z,17.93
2018-09-18T21:29:30.638Z,17.89
2018-09-18T21:31:59.914Z,17.82
2018-09-18T21:34:28.486Z,17.74
2018-09-18T21:36:57.202Z,17.68
2018-09-18T21:39:25.942Z,17.65
2018-09-18T21:41:54.853Z,17.58
2018-09-18T21:44:24.075Z,17.50
2018-09-18T21:46:52.779Z,17.45
2018-09-18T21:49:21.600Z,17.43
2018-09-18T21:51:50.249Z,17.40
2018-09-18T21:54:19.041Z,17.36
2018-09-18T21:56:47.836Z,17.30
2018-09-18T21:59:16.732Z,17.28
2018-09-18T22:01:45.909Z,17.12
2018-09-18T22:04:15.229Z,17.11
2018-09-18T22:06:44.278Z,17.07
2018-09-18T22:09:12.929Z,17.02
2018-09-18T22:11:41.678Z,17.02
2018-09-18T22:14:10.420Z,16.96
2018-09-18T22:16:39.166Z,16.92
2018-09-18T22:19:08.004Z,16.80
2018-09-18T22:21:36.937Z,16.72
2018-09-18T22:24:06.164Z,16.68
2018-09-18T22:26:34.975Z,16.65
2018-09-18T22:29:04.169Z,16.63
2018-09-18T22:31:33.429Z,16.58
2018-09-18T22:34:02.126Z,16.61
2018-09-18T22:36:30.918Z,16.55
2018-09-18T22:39:01.038Z,16.49
2018-09-18T22:41:30.596Z,16.44
2018-09-18T22:44:00.000Z,16.23
2018-09-18T22:46:28.837Z,16.05
2018-09-18T22:48:57.467Z,16.08
2018-09-18T22:51:26.527Z,16.05
2018-09-18T22:53:55.418Z,15.99
2018-09-18T22:56:25.041Z,15.98
2018-09-18T22:58:53.886Z,15.74
2018-09-18T23:01:23.394Z,15.65
2018-09-18T23:03:52.577Z,15.61
2018-09-18T23:06:21.708Z,15.56
2018-09-18T23:08:51.044Z,15.61
2018-09-18T23:11:19.817Z,15.70
2018-09-18T23:13:48.728Z,15.66
2018-09-18T23:16:17.386Z,15.62
2018-09-18T23:18:45.999Z,15.77
2018-09-18T23:21:14.688Z,15.80
2018-09-18T23:23:43.530Z,15.77
2018-09-18T23:26:12.955Z,15.84
2018-09-18T23:28:42.098Z,15.96
2018-09-18T23:31:10.776Z,16.02
2018-09-18T23:33:39.437Z,16.12
2018-09-18T23:36:08.869Z,16.10
2018-09-18T23:38:37.920Z,16.09
2018-09-18T23:41:07.096Z,16.08
2018-09-18T23:43:36.298Z,16.06
2018-09-18T23:46:05.158Z,16.02
2018-09-18T23:48:34.766Z,15.96
2018-09-18T23:51:03.330Z,15.93
2018-09-18T23:53:31.919Z,15.87
2018-09-18T23:56:02.669Z,15.82
2018-09-18T23:58:31.325Z,15.77
